sensor_id;sensor_type;location;lat;lon;timestamp;pressure;altitude;pressure_sealevel;temperature;humidity
15405;BME280;7801;48.124;11.590;2023-03-01T00:02:21;95964.03;;;2.41;76.73
15405;BME280;7801;48.124;11.590;2023-03-01T00:04:47;95970.06;;;2.53;76.53
15405;BME280;7801;48.124;11.590;2023-03-01T00:07:14;95961.41;;;2.53;76.37
15405;BME280;7801;48.124;11.590;2023-03-01T00:09:40;95957.53;;;2.55;75.89
15405;BME280;7801;48.124;11.590;2023-03-01T00:12:09;95958.25;;;2.62;76.10
15405;BME280;7801;48.124;11.590;2023-03-01T00:14:36;95948.31;;;2.53;76.52
15405;BME280;7801;48.124;11.590;2023-03-01T00:17:02;95955.84;;;2.49;76.51
15405;BME280;7801;48.124;11.590;2023-03-01T00:19:27;95956.75;;;2.55;76.81
15405;BME280;7801;48.124;11.590;2023-03-01T00:21:52;95949.91;;;2.54;76.67
15405;BME280;7801;48.124;11.590;2023-03-01T00:24:19;95948.44;;;2.46;76.85
15405;BME280;7801;48.124;11.590;2023-03-01T00:26:45;95958.00;;;2.52;76.30
15405;BME280;7801;48.124;11.590;2023-03-01T00:29:15;95956.97;;;2.53;76.40
15405;BME280;7801;48.124;11.590;2023-03-01T00:31:40;95960.75;;;2.57;76.57
15405;BME280;7801;48.124;11.590;2023-03-01T00:34:05;95959.47;;;2.71;76.11
15405;BME280;7801;48.124;11.590;2023-03-01T00:36:33;95953.13;;;2.79;75.49
15405;BME280;7801;48.124;11.590;2023-03-01T00:39:02;95946.37;;;2.71;75.87
15405;BME280;7801;48.124;11.590;2023-03-01T00:41:30;95942.75;;;2.49;76.55
15405;BME280;7801;48.124;11.590;2023-03-01T00:43:56;95947.44;;;2.47;77.29
15405;BME280;7801;48.124;11.590;2023-03-01T00:46:25;95943.09;;;2.53;76.89
15405;BME280;7801;48.124;11.590;2023-03-01T00:48:50;95943.22;;;2.69;76.75
15405;BME280;7801;48.124;11.590;2023-03-01T00:51:23;95933.75;;;2.57;76.59
15405;BME280;7801;48.124;11.590;2023-03-01T00:53:59;95935.12;;;2.48;77.21
15405;BME280;7801;48.124;11.590;2023-03-01T00:56:26;95933.75;;;2.45;77.06
15405;BME280;7801;48.124;11.590;2023-03-01T00:58:52;95934.22;;;2.42;77.43
15405;BME280;7801;48.124;11.590;2023-03-01T01:01:20;95929.53;;;2.32;77.82
15405;BME280;7801;48.124;11.590;2023-03-01T01:03:54;95923.37;;;2.50;76.91
15405;BME280;7801;48.124;11.590;2023-03-01T01:06:43;95921.34;;;2.52;76.62
15405;BME280;7801;48.124;11.590;2023-03-01T01:09:11;95929.09;;;2.47;76.54
15405;BME280;7801;48.124;11.590;2023-03-01T01:11:45;95920.31;;;2.41;76.98
15405;BME280;7801;48.124;11.590;2023-03-01T01:14:13;95917.94;;;2.28;77.57
15405;BME280;7801;48.124;11.590;2023-03-01T01:16:40;95914.28;;;2.41;77.21
15405;BME280;7801;48.124;11.590;2023-03-01T01:19:07;95916.22;;;2.46;76.82
15405;BME280;7801;48.124;11.590;2023-03-01T01:21:35;95910.19;;;2.45;77.30
15405;BME280;7801;48.124;11.590;2023-03-01T01:24:03;95903.38;;;2.44;76.76
15405;BME280;7801;48.124;11.590;2023-03-01T01:26:31;95902.69;;;2.25;76.98
15405;BME280;7801;48.124;11.590;2023-03-01T01:29:00;95898.81;;;2.28;77.37
15405;BME280;7801;48.124;11.590;2023-03-01T01:31:26;95895.94;;;2.29;77.04
15405;BME280;7801;48.124;11.590;2023-03-01T01:33:55;95904.72;;;2.35;77.03
15405;BME280;7801;48.124;11.590;2023-03-01T01:36:21;95891.72;;;2.17;76.96
15405;BME280;7801;48.124;11.590;2023-03-01T01:38:47;95882.19;;;2.34;77.23
15405;BME280;7801;48.124;11.590;2023-03-01T01:41:13;95885.16;;;2.26;77.80
15405;BME280;7801;48.124;11.590;2023-03-01T01:44:26;95879.34;;;2.47;76.94
15405;BME280;7801;48.124;11.590;2023-03-01T01:47:02;95883.00;;;2.23;76.54
15405;BME280;7801;48.124;11.590;2023-03-01T01:49:50;95880.13;;;2.36;77.01
15405;BME280;7801;48.124;11.590;2023-03-01T01:52:36;95870.34;;;2.43;76.26
15405;BME280;7801;48.124;11.590;2023-03-01T01:55:09;95871.38;;;2.54;76.27
15405;BME280;7801;48.124;11.590;2023-03-01T01:57:40;95863.28;;;2.55;75.57
15405;BME280;7801;48.124;11.590;2023-03-01T02:00:14;95873.66;;;2.38;76.04
15405;BME280;7801;48.124;11.590;2023-03-01T02:02:43;95871.50;;;2.24;76.31
15405;BME280;7801;48.124;11.590;2023-03-01T02:07:42;95859.88;;;2.43;76.39
15405;BME280;7801;48.124;11.590;2023-03-01T02:10:09;95852.25;;;2.41;75.57
15405;BME280;7801;48.124;11.590;2023-03-01T02:12:36;95857.81;;;2.33;76.41
15405;BME280;7801;48.124;11.590;2023-03-01T02:15:04;95854.97;;;2.35;76.14
15405;BME280;7801;48.124;11.590;2023-03-01T02:17:29;95861.47;;;2.21;76.37
15405;BME280;7801;48.124;11.590;2023-03-01T02:22:44;95855.66;;;2.19;76.94
15405;BME280;7801;48.124;11.590;2023-03-01T02:25:25;95851.12;;;2.26;76.59
15405;BME280;7801;48.124;11.590;2023-03-01T02:30:59;95847.69;;;2.14;77.60
15405;BME280;7801;48.124;11.590;2023-03-01T02:33:46;95848.16;;;2.22;77.03
15405;BME280;7801;48.124;11.590;2023-03-01T02:36:40;95845.44;;;2.17;77.39
15405;BME280;7801;48.124;11.590;2023-03-01T02:39:08;95851.59;;;2.23;77.29
15405;BME280;7801;48.124;11.590;2023-03-01T02:41:42;95855.78;;;2.24;76.97
15405;BME280;7801;48.124;11.590;2023-03-01T02:44:08;95848.63;;;2.08;77.68
15405;BME280;7801;48.124;11.590;2023-03-01T02:46:46;95853.88;;;2.08;77.72
15405;BME280;7801;48.124;11.590;2023-03-01T02:49:30;95845.44;;;2.17;77.50
15405;BME280;7801;48.124;11.590;2023-03-01T02:55:18;95837.34;;;1.95;77.20
15405;BME280;7801;48.124;11.590;2023-03-01T02:57:40;95838.44;;;1.76;77.94
15405;BME280;7801;48.124;11.590;2023-03-01T03:00:08;95843.69;;;1.76;77.38
15405;BME280;7801;48.124;11.590;2023-03-01T03:02:35;95835.25;;;1.74;77.67
15405;BME280;7801;48.124;11.590;2023-03-01T03:05:13;95834.81;;;1.89;77.72
15405;BME280;7801;48.124;11.590;2023-03-01T03:07:43;95831.41;;;1.88;77.33
15405;BME280;7801;48.124;11.590;2023-03-01T03:10:13;95833.94;;;1.83;78.20
15405;BME280;7801;48.124;11.590;2023-03-01T03:12:41;95838.47;;;1.88;78.23
15405;BME280;7801;48.124;11.590;2023-03-01T03:15:09;95842.34;;;1.85;78.40
15405;BME280;7801;48.124;11.590;2023-03-01T03:17:36;95842.34;;;1.85;78.08
15405;BME280;7801;48.124;11.590;2023-03-01T03:20:24;95845.06;;;1.90;78.33
15405;BME280;7801;48.124;11.590;2023-03-01T03:22:52;95838.59;;;1.93;77.92
15405;BME280;7801;48.124;11.590;2023-03-01T03:25:19;95842.88;;;1.87;77.83
15405;BME280;7801;48.124;11.590;2023-03-01T03:27:46;95836.19;;;1.91;77.82
15405;BME280;7801;48.124;11.590;2023-03-01T03:30:16;95839.72;;;1.97;77.33
15405;BME280;7801;48.124;11.590;2023-03-01T03:32:46;95838.59;;;1.93;77.39
15405;BME280;7801;48.124;11.590;2023-03-01T03:35:24;95826.56;;;2.03;77.32
15405;BME280;7801;48.124;11.590;2023-03-01T03:37:52;95831.06;;;2.08;76.60
15405;BME280;7801;48.124;11.590;2023-03-01T03:40:31;95832.81;;;2.02;76.76
15405;BME280;7801;48.124;11.590;2023-03-01T03:42:56;95823.34;;;2.13;76.09
15405;BME280;7801;48.124;11.590;2023-03-01T03:45:22;95828.72;;;2.06;75.61
15405;BME280;7801;48.124;11.590;2023-03-01T03:47:48;95825.63;;;1.86;76.63
15405;BME280;7801;48.124;11.590;2023-03-01T03:50:16;95829.59;;;1.77;76.83
15405;BME280;7801;48.124;11.590;2023-03-01T03:52:42;95832.78;;;1.79;76.69
15405;BME280;7801;48.124;11.590;2023-03-01T03:55:10;95820.72;;;1.78;76.69
15405;BME280;7801;48.124;11.590;2023-03-01T03:57:41;95814.69;;;1.78;76.48
15405;BME280;7801;48.124;11.590;2023-03-01T04:00:10;95814.91;;;1.76;76.30
15405;BME280;7801;48.124;11.590;2023-03-01T04:02:42;95811.84;;;1.79;76.46
15405;BME280;7801;48.124;11.590;2023-03-01T04:05:10;95810.25;;;1.78;75.99
15405;BME280;7801;48.124;11.590;2023-03-01T04:07:38;95806.94;;;1.71;76.58
15405;BME280;7801;48.124;11.590;2023-03-01T04:10:08;95809.59;;;1.83;76.06
15405;BME280;7801;48.124;11.590;2023-03-01T04:12:36;95806.75;;;1.84;75.96
15405;BME280;7801;48.124;11.590;2023-03-01T04:15:03;95810.00;;;1.68;76.57
15405;BME280;7801;48.124;11.590;2023-03-01T04:17:38;95804.94;;;1.85;76.02
15405;BME280;7801;48.124;11.590;2023-03-01T04:20:06;95809.81;;;1.93;75.79
15405;BME280;7801;48.124;11.590;2023-03-01T04:22:34;95812.06;;;1.78;75.84
15405;BME280;7801;48.124;11.590;2023-03-01T04:25:00;95807.19;;;1.81;75.93
15405;BME280;7801;48.124;11.590;2023-03-01T04:27:33;95800.81;;;1.89;75.02
15405;BME280;7801;48.124;11.590;2023-03-01T04:29:58;95805.72;;;1.85;75.17
15405;BME280;7801;48.124;11.590;2023-03-01T04:32:25;95807.66;;;1.78;75.05
15405;BME280;7801;48.124;11.590;2023-03-01T04:34:52;95808.75;;;1.70;75.47
15405;BME280;7801;48.124;11.590;2023-03-01T04:37:17;95797.94;;;1.67;75.36
15405;BME280;7801;48.124;11.590;2023-03-01T04:39:42;95802.09;;;1.86;75.05
15405;BME280;7801;48.124;11.590;2023-03-01T04:42:13;95808.87;;;1.87;74.76
15405;BME280;7801;48.124;11.590;2023-03-01T04:44:39;95805.03;;;1.78;74.66
15405;BME280;7801;48.124;11.590;2023-03-01T04:47:06;95790.50;;;1.82;74.91
15405;BME280;7801;48.124;11.590;2023-03-01T04:49:33;95802.84;;;1.63;75.39
15405;BME280;7801;48.124;11.590;2023-03-01T04:52:00;95803.78;;;1.81;74.67
15405;BME280;7801;48.124;11.590;2023-03-01T04:54:32;95794.13;;;1.81;74.84
15405;BME280;7801;48.124;11.590;2023-03-01T04:56:57;95792.31;;;1.82;75.02
15405;BME280;7801;48.124;11.590;2023-03-01T04:59:23;95797.75;;;1.80;75.04
15405;BME280;7801;48.124;11.590;2023-03-01T05:01:51;95796.94;;;1.56;76.07
15405;BME280;7801;48.124;11.590;2023-03-01T05:04:18;95792.50;;;1.57;76.13
15405;BME280;7801;48.124;11.590;2023-03-01T05:06:43;95789.00;;;1.75;75.83
15405;BME280;7801;48.124;11.590;2023-03-01T05:09:11;95785.19;;;1.35;76.82
15405;BME280;7801;48.124;11.590;2023-03-01T05:11:38;95789.75;;;1.52;76.61
15405;BME280;7801;48.124;11.590;2023-03-01T05:14:06;95785.75;;;1.49;76.51
15405;BME280;7801;48.124;11.590;2023-03-01T05:16:33;95788.03;;;1.46;76.81
15405;BME280;7801;48.124;11.590;2023-03-01T05:19:00;95789.28;;;1.43;76.59
15405;BME280;7801;48.124;11.590;2023-03-01T05:21:26;95784.72;;;1.38;76.32
15405;BME280;7801;48.124;11.590;2023-03-01T05:23:52;95790.31;;;1.42;76.56
15405;BME280;7801;48.124;11.590;2023-03-01T05:26:19;95779.94;;;1.35;76.89
15405;BME280;7801;48.124;11.590;2023-03-01T05:28:55;95780.31;;;1.39;76.75
15405;BME280;7801;48.124;11.590;2023-03-01T05:31:24;95788.38;;;1.37;76.68
15405;BME280;7801;48.124;11.590;2023-03-01T05:33:50;95781.53;;;1.36;76.62
15405;BME280;7801;48.124;11.590;2023-03-01T05:36:16;95790.28;;;1.30;76.55
15405;BME280;7801;48.124;11.590;2023-03-01T05:38:43;95784.69;;;1.27;76.82
15405;BME280;7801;48.124;11.590;2023-03-01T05:41:14;95783.00;;;1.21;77.05
15405;BME280;7801;48.124;11.590;2023-03-01T05:43:41;95783.06;;;1.14;76.95
15405;BME280;7801;48.124;11.590;2023-03-01T05:46:11;95773.78;;;1.18;77.01
15405;BME280;7801;48.124;11.590;2023-03-01T05:48:39;95779.09;;;1.12;77.37
15405;BME280;7801;48.124;11.590;2023-03-01T05:51:06;95777.31;;;1.24;77.27
15405;BME280;7801;48.124;11.590;2023-03-01T05:53:32;95776.47;;;1.12;77.63
15405;BME280;7801;48.124;11.590;2023-03-01T05:55:58;95770.87;;;1.08;77.37
15405;BME280;7801;48.124;11.590;2023-03-01T05:58:24;95766.06;;;1.23;77.40
15405;BME280;7801;48.124;11.590;2023-03-01T06:00:50;95772.63;;;1.14;77.19
15405;BME280;7801;48.124;11.590;2023-03-01T06:03:17;95774.59;;;1.30;76.94
15405;BME280;7801;48.124;11.590;2023-03-01T06:05:44;95778.19;;;1.18;76.91
15405;BME280;7801;48.124;11.590;2023-03-01T06:08:11;95778.44;;;1.16;77.36
15405;BME280;7801;48.124;11.590;2023-03-01T06:10:40;95782.12;;;1.09;77.92
15405;BME280;7801;48.124;11.590;2023-03-01T06:13:07;95781.66;;;1.00;77.78
15405;BME280;7801;48.124;11.590;2023-03-01T06:15:33;95789.19;;;0.78;78.19
15405;BME280;7801;48.124;11.590;2023-03-01T06:18:02;95790.34;;;0.82;78.89
15405;BME280;7801;48.124;11.590;2023-03-01T06:20:31;95798.34;;;0.99;78.11
15405;BME280;7801;48.124;11.590;2023-03-01T06:23:00;95798.47;;;1.04;77.90
15405;BME280;7801;48.124;11.590;2023-03-01T06:25:27;95793.22;;;1.22;77.37
15405;BME280;7801;48.124;11.590;2023-03-01T06:27:54;95783.38;;;1.06;77.41
15405;BME280;7801;48.124;11.590;2023-03-01T06:30:21;95801.13;;;1.16;77.48
15405;BME280;7801;48.124;11.590;2023-03-01T06:32:49;95784.66;;;1.15;77.45
15405;BME280;7801;48.124;11.590;2023-03-01T06:35:15;95782.12;;;1.09;77.28
15405;BME280;7801;48.124;11.590;2023-03-01T06:37:43;95791.41;;;1.23;77.14
15405;BME280;7801;48.124;11.590;2023-03-01T06:40:10;95788.50;;;1.13;77.03
15405;BME280;7801;48.124;11.590;2023-03-01T06:42:41;95793.00;;;1.24;76.71
15405;BME280;7801;48.124;11.590;2023-03-01T06:45:08;95792.19;;;1.23;76.69
15405;BME280;7801;48.124;11.590;2023-03-01T06:47:33;95788.56;;;1.24;76.98
15405;BME280;7801;48.124;11.590;2023-03-01T06:50:00;95783.78;;;1.21;76.21
15405;BME280;7801;48.124;11.590;2023-03-01T06:52:27;95788.59;;;1.06;77.49
15405;BME280;7801;48.124;11.590;2023-03-01T06:54:53;95789.53;;;0.82;78.51
15405;BME280;7801;48.124;11.590;2023-03-01T06:57:20;95792.47;;;1.03;78.02
15405;BME280;7801;48.124;11.590;2023-03-01T06:59:47;95789.19;;;1.08;78.21
15405;BME280;7801;48.124;11.590;2023-03-01T07:02:13;95785.25;;;1.29;77.66
15405;BME280;7801;48.124;11.590;2023-03-01T07:04:39;95795.63;;;1.24;77.13
15405;BME280;7801;48.124;11.590;2023-03-01T07:07:06;95799.56;;;1.26;76.98
15405;BME280;7801;48.124;11.590;2023-03-01T07:09:31;95801.28;;;1.21;76.80
15405;BME280;7801;48.124;11.590;2023-03-01T07:11:57;95769.19;;;4.61;100.00
15405;BME280;7801;48.124;11.590;2023-03-01T07:14:24;95775.94;;;7.53;100.00
15405;BME280;7801;48.124;11.590;2023-03-01T07:16:53;95774.09;;;7.79;81.72
15405;BME280;7801;48.124;11.590;2023-03-01T07:19:21;95756.25;;;8.76;70.86
15405;BME280;7801;48.124;11.590;2023-03-01T07:21:47;95762.50;;;9.45;63.88
15405;BME280;7801;48.124;11.590;2023-03-01T07:24:14;95758.13;;;9.98;60.18
15405;BME280;7801;48.124;11.590;2023-03-01T07:26:40;95770.03;;;8.68;49.33
15405;BME280;7801;48.124;11.590;2023-03-01T07:29:07;95780.59;;;6.01;54.95
15405;BME280;7801;48.124;11.590;2023-03-01T07:31:34;95780.19;;;4.58;60.06
15405;BME280;7801;48.124;11.590;2023-03-01T07:34:00;95779.91;;;3.32;65.60
15405;BME280;7801;48.124;11.590;2023-03-01T07:36:26;95781.81;;;2.80;67.99
15405;BME280;7801;48.124;11.590;2023-03-01T07:38:53;95782.69;;;2.57;69.38
15405;BME280;7801;48.124;11.590;2023-03-01T07:41:21;95785.03;;;2.07;71.51
15405;BME280;7801;48.124;11.590;2023-03-01T07:43:47;95781.50;;;2.01;72.05
15405;BME280;7801;48.124;11.590;2023-03-01T07:46:13;95780.34;;;1.74;73.41
15405;BME280;7801;48.124;11.590;2023-03-01T07:48:40;95773.06;;;1.76;74.16
15405;BME280;7801;48.124;11.590;2023-03-01T07:51:06;95776.50;;;1.77;74.13
15405;BME280;7801;48.124;11.590;2023-03-01T07:53:34;95767.28;;;1.62;74.59
15405;BME280;7801;48.124;11.590;2023-03-01T07:58:27;95771.84;;;1.79;74.70
15405;BME280;7801;48.124;11.590;2023-03-01T08:00:52;95771.25;;;1.88;74.93
15405;BME280;7801;48.124;11.590;2023-03-01T08:03:19;95762.75;;;1.81;74.91
15405;BME280;7801;48.124;11.590;2023-03-01T08:05:44;95773.97;;;1.70;74.61
15405;BME280;7801;48.124;11.590;2023-03-01T08:08:11;95773.41;;;1.45;75.18
15405;BME280;7801;48.124;11.590;2023-03-01T08:10:36;95773.13;;;1.34;75.83
15405;BME280;7801;48.124;11.590;2023-03-01T08:13:01;95771.63;;;1.27;76.12
15405;BME280;7801;48.124;11.590;2023-03-01T08:15:27;95765.97;;;1.30;76.36
15405;BME280;7801;48.124;11.590;2023-03-01T08:17:56;95761.22;;;1.50;75.97
15405;BME280;7801;48.124;11.590;2023-03-01T08:20:21;95762.63;;;1.64;75.60
15405;BME280;7801;48.124;11.590;2023-03-01T08:22:47;95760.81;;;1.65;75.01
15405;BME280;7801;48.124;11.590;2023-03-01T08:25:13;95764.31;;;1.59;75.54
15405;BME280;7801;48.124;11.590;2023-03-01T08:27:38;95767.94;;;1.69;75.35
15405;BME280;7801;48.124;11.590;2023-03-01T08:30:10;95755.44;;;1.71;75.07
15405;BME280;7801;48.124;11.590;2023-03-01T08:32:37;95759.31;;;1.69;74.86
15405;BME280;7801;48.124;11.590;2023-03-01T08:35:06;95766.47;;;1.62;74.91
15405;BME280;7801;48.124;11.590;2023-03-01T08:37:31;95757.63;;;1.63;75.16
15405;BME280;7801;48.124;11.590;2023-03-01T08:39:59;95756.81;;;1.74;75.06
15405;BME280;7801;48.124;11.590;2023-03-01T08:42:29;95761.72;;;1.82;74.99
15405;BME280;7801;48.124;11.590;2023-03-01T08:44:55;95751.34;;;1.76;74.44
15405;BME280;7801;48.124;11.590;2023-03-01T08:47:22;95734.63;;;1.88;74.65
15405;BME280;7801;48.124;11.590;2023-03-01T08:49:50;95733.41;;;2.02;74.06
15405;BME280;7801;48.124;11.590;2023-03-01T08:52:17;95734.75;;;1.93;73.87
15405;BME280;7801;48.124;11.590;2023-03-01T08:54:44;95740.22;;;1.80;74.70
15405;BME280;7801;48.124;11.590;2023-03-01T08:57:10;95735.88;;;1.97;74.25
15405;BME280;7801;48.124;11.590;2023-03-01T08:59:37;95739.19;;;2.04;73.95
15405;BME280;7801;48.124;11.590;2023-03-01T09:02:11;95736.78;;;2.15;73.58
15405;BME280;7801;48.124;11.590;2023-03-01T09:04:40;95737.12;;;2.18;73.23
15405;BME280;7801;48.124;11.590;2023-03-01T09:07:06;95733.88;;;2.39;72.52
15405;BME280;7801;48.124;11.590;2023-03-01T09:09:31;95728.53;;;2.46;72.34
15405;BME280;7801;48.124;11.590;2023-03-01T09:11:58;95726.38;;;2.43;72.37
15405;BME280;7801;48.124;11.590;2023-03-01T09:14:24;95728.53;;;2.74;71.62
15405;BME280;7801;48.124;11.590;2023-03-01T09:16:54;95733.03;;;2.62;71.29
15405;BME280;7801;48.124;11.590;2023-03-01T09:19:21;95727.56;;;2.64;71.84
15405;BME280;7801;48.124;11.590;2023-03-01T09:21:48;95729.91;;;2.77;71.44
15405;BME280;7801;48.124;11.590;2023-03-01T09:24:21;95720.66;;;2.86;70.62
15405;BME280;7801;48.124;11.590;2023-03-01T09:26:49;95723.88;;;2.76;71.11
15405;BME280;7801;48.124;11.590;2023-03-01T09:29:16;95720.31;;;2.83;70.84
15405;BME280;7801;48.124;11.590;2023-03-01T09:31:42;95716.59;;;2.95;71.50
15405;BME280;7801;48.124;11.590;2023-03-01T09:34:09;95717.34;;;2.91;70.71
15405;BME280;7801;48.124;11.590;2023-03-01T09:36:35;95712.16;;;2.96;70.77
15405;BME280;7801;48.124;11.590;2023-03-01T09:39:02;95716.78;;;3.05;70.44
15405;BME280;7801;48.124;11.590;2023-03-01T09:42:00;95720.03;;;2.67;70.66
15405;BME280;7801;48.124;11.590;2023-03-01T09:44:32;95727.84;;;2.79;70.67
15405;BME280;7801;48.124;11.590;2023-03-01T09:47:02;95716.84;;;2.65;71.22
15405;BME280;7801;48.124;11.590;2023-03-01T09:49:33;95706.53;;;2.87;70.83
15405;BME280;7801;48.124;11.590;2023-03-01T09:52:21;95710.19;;;3.03;70.42
15405;BME280;7801;48.124;11.590;2023-03-01T09:54:51;95718.63;;;3.05;70.06
15405;BME280;7801;48.124;11.590;2023-03-01T10:00:35;95719.75;;;2.81;71.10
15405;BME280;7801;48.124;11.590;2023-03-01T10:03:28;95714.41;;;2.75;71.32
15405;BME280;7801;48.124;11.590;2023-03-01T10:05:59;95716.28;;;2.92;70.94
15405;BME280;7801;48.124;11.590;2023-03-01T10:11:01;95705.72;;;2.87;71.19
15405;BME280;7801;48.124;11.590;2023-03-01T10:16:56;95700.75;;;3.02;70.87
15405;BME280;7801;48.124;11.590;2023-03-01T10:22:13;95698.56;;;2.82;71.30
15405;BME280;7801;48.124;11.590;2023-03-01T10:24:40;95699.94;;;3.01;72.02
15405;BME280;7801;48.124;11.590;2023-03-01T10:27:22;95686.75;;;3.13;70.87
15405;BME280;7801;48.124;11.590;2023-03-01T10:32:58;95693.44;;;3.04;70.34
15405;BME280;7801;48.124;11.590;2023-03-01T10:35:29;95700.28;;;2.76;70.41
15405;BME280;7801;48.124;11.590;2023-03-01T10:38:11;95694.53;;;2.91;70.62
15405;BME280;7801;48.124;11.590;2023-03-01T10:40:59;95699.41;;;3.16;70.03
15405;BME280;7801;48.124;11.590;2023-03-01T10:43:30;95693.72;;;3.53;69.01
15405;BME280;7801;48.124;11.590;2023-03-01T10:51:45;95683.44;;;3.18;69.15
15405;BME280;7801;48.124;11.590;2023-03-01T10:54:32;95685.97;;;3.12;69.58
15405;BME280;7801;48.124;11.590;2023-03-01T10:57:00;95669.00;;;3.32;69.10
15405;BME280;7801;48.124;11.590;2023-03-01T10:59:35;95662.56;;;3.23;69.15
15405;BME280;7801;48.124;11.590;2023-03-01T11:02:26;95664.25;;;3.29;69.40
15405;BME280;7801;48.124;11.590;2023-03-01T11:05:23;95650.47;;;3.38;69.83
15405;BME280;7801;48.124;11.590;2023-03-01T11:07:56;95645.38;;;3.49;69.28
15405;BME280;7801;48.124;11.590;2023-03-01T11:10:27;95640.38;;;3.47;69.10
15405;BME280;7801;48.124;11.590;2023-03-01T11:13:07;95629.22;;;3.57;68.83
15405;BME280;7801;48.124;11.590;2023-03-01T11:15:33;95629.94;;;3.69;68.28
15405;BME280;7801;48.124;11.590;2023-03-01T11:17:58;95625.09;;;3.61;67.74
15405;BME280;7801;48.124;11.590;2023-03-01T11:20:36;95611.37;;;3.75;67.45
15405;BME280;7801;48.124;11.590;2023-03-01T11:23:10;95606.38;;;3.52;67.51
15405;BME280;7801;48.124;11.590;2023-03-01T11:25:42;95610.72;;;3.85;67.52
15405;BME280;7801;48.124;11.590;2023-03-01T11:28:15;95604.03;;;3.94;67.54
15405;BME280;7801;48.124;11.590;2023-03-01T11:30:55;95602.13;;;3.90;67.60
15405;BME280;7801;48.124;11.590;2023-03-01T11:39:03;95591.75;;;4.00;68.53
15405;BME280;7801;48.124;11.590;2023-03-01T11:41:35;95589.19;;;4.05;67.30
15405;BME280;7801;48.124;11.590;2023-03-01T11:44:25;95592.53;;;4.00;67.58
15405;BME280;7801;48.124;11.590;2023-03-01T11:50:19;95568.81;;;3.90;67.55
15405;BME280;7801;48.124;11.590;2023-03-01T12:07:29;95575.88;;;4.11;67.50
15405;BME280;7801;48.124;11.590;2023-03-01T12:10:20;95573.34;;;4.22;67.09
15405;BME280;7801;48.124;11.590;2023-03-01T12:16:20;95557.97;;;4.30;67.35
15405;BME280;7801;48.124;11.590;2023-03-01T12:18:57;95551.25;;;4.18;67.46
15405;BME280;7801;48.124;11.590;2023-03-01T12:24:25;95544.59;;;4.37;68.62
15405;BME280;7801;48.124;11.590;2023-03-01T12:41:59;95516.69;;;4.58;66.84
15405;BME280;7801;48.124;11.590;2023-03-01T12:44:52;95519.25;;;4.47;67.02
15405;BME280;7801;48.124;11.590;2023-03-01T12:50:19;95511.87;;;4.76;66.76
15405;BME280;7801;48.124;11.590;2023-03-01T12:52:57;95521.41;;;4.88;66.17
15405;BME280;7801;48.124;11.590;2023-03-01T12:55:33;95520.72;;;5.02;65.85
15405;BME280;7801;48.124;11.590;2023-03-01T13:09:11;95505.81;;;5.13;65.38
15405;BME280;7801;48.124;11.590;2023-03-01T13:11:43;95507.84;;;5.06;65.60
15405;BME280;7801;48.124;11.590;2023-03-01T13:16:51;95506.09;;;5.22;65.09
15405;BME280;7801;48.124;11.590;2023-03-01T13:19:19;95521.69;;;5.33;65.45
15405;BME280;7801;48.124;11.590;2023-03-01T13:21:47;95501.03;;;5.10;65.64
15405;BME280;7801;48.124;11.590;2023-03-01T13:24:41;95517.94;;;5.24;66.02
15405;BME280;7801;48.124;11.590;2023-03-01T13:29:47;95505.84;;;5.23;65.62
15405;BME280;7801;48.124;11.590;2023-03-01T13:32:26;95501.16;;;5.30;65.78
15405;BME280;7801;48.124;11.590;2023-03-01T13:37:45;95500.12;;;5.31;66.28
15405;BME280;7801;48.124;11.590;2023-03-01T13:42:53;95484.91;;;5.43;66.00
15405;BME280;7801;48.124;11.590;2023-03-01T13:48:08;95484.44;;;5.62;65.25
15405;BME280;7801;48.124;11.590;2023-03-01T13:50:47;95493.44;;;5.71;64.88
15405;BME280;7801;48.124;11.590;2023-03-01T13:53:19;95486.84;;;5.68;65.06
15405;BME280;7801;48.124;11.590;2023-03-01T13:55:47;95490.84;;;5.81;64.87
15405;BME280;7801;48.124;11.590;2023-03-01T14:00:56;95471.94;;;5.89;64.33
15405;BME280;7801;48.124;11.590;2023-03-01T14:03:23;95472.97;;;5.88;64.68
15405;BME280;7801;48.124;11.590;2023-03-01T14:08:47;95469.06;;;5.96;64.40
15405;BME280;7801;48.124;11.590;2023-03-01T14:11:35;95469.34;;;5.94;64.68
15405;BME280;7801;48.124;11.590;2023-03-01T14:19:48;95463.56;;;5.97;64.58
15405;BME280;7801;48.124;11.590;2023-03-01T14:22:29;95465.66;;;6.05;64.44
15405;BME280;7801;48.124;11.590;2023-03-01T14:25:00;95461.97;;;5.96;64.44
15405;BME280;7801;48.124;11.590;2023-03-01T14:27:37;95448.28;;;6.04;64.35
15405;BME280;7801;48.124;11.590;2023-03-01T14:30:19;95446.19;;;6.16;64.06
15405;BME280;7801;48.124;11.590;2023-03-01T14:32:57;95445.38;;;6.06;64.36
15405;BME280;7801;48.124;11.590;2023-03-01T14:35:32;95438.28;;;6.16;64.50
15405;BME280;7801;48.124;11.590;2023-03-01T14:37:58;95446.72;;;6.18;64.72
15405;BME280;7801;48.124;11.590;2023-03-01T14:40:32;95435.13;;;6.25;64.37
15405;BME280;7801;48.124;11.590;2023-03-01T14:43:02;95434.34;;;6.19;64.05
15405;BME280;7801;48.124;11.590;2023-03-01T14:45:34;95427.75;;;6.27;63.86
15405;BME280;7801;48.124;11.590;2023-03-01T14:48:02;95429.34;;;6.33;64.29
15405;BME280;7801;48.124;11.590;2023-03-01T14:50:34;95428.28;;;6.39;63.96
15405;BME280;7801;48.124;11.590;2023-03-01T14:53:04;95421.44;;;6.28;64.19
15405;BME280;7801;48.124;11.590;2023-03-01T14:55:36;95433.28;;;6.30;64.68
15405;BME280;7801;48.124;11.590;2023-03-01T14:58:08;95438.28;;;6.27;64.49
15405;BME280;7801;48.124;11.590;2023-03-01T15:00:35;95424.59;;;6.25;65.21
15405;BME280;7801;48.124;11.590;2023-03-01T15:03:08;95424.59;;;6.30;65.59
15405;BME280;7801;48.124;11.590;2023-03-01T15:05:45;95423.53;;;6.31;65.05
15405;BME280;7801;48.124;11.590;2023-03-01T15:08:25;95431.72;;;6.34;65.25
15405;BME280;7801;48.124;11.590;2023-03-01T15:11:20;95429.59;;;6.36;65.17
15405;BME280;7801;48.124;11.590;2023-03-01T15:13:51;95427.50;;;6.38;65.27
15405;BME280;7801;48.124;11.590;2023-03-01T15:16:19;95427.78;;;6.42;65.39
15405;BME280;7801;48.124;11.590;2023-03-01T15:18:53;95425.66;;;6.39;65.68
15405;BME280;7801;48.124;11.590;2023-03-01T15:21:27;95426.19;;;6.36;65.90
15405;BME280;7801;48.124;11.590;2023-03-01T15:24:17;95418.03;;;6.37;65.98
15405;BME280;7801;48.124;11.590;2023-03-01T15:26:55;95425.41;;;6.40;66.01